createdAt,value
2019-02-07T00:00:50.728Z,90.01
2019-02-07T00:01:50.709Z,89.92
2019-02-07T00:02:50.949Z,89.92
2019-02-07T00:03:50.691Z,90.58
2019-02-07T00:04:50.901Z,90.68
2019-02-07T00:05:51.169Z,90.68
2019-02-07T00:06:50.897Z,90.86
2019-02-07T00:07:50.624Z,91.15
2019-02-07T00:08:50.853Z,90.96
2019-02-07T00:09:50.845Z,90.49
2019-02-07T00:10:50.824Z,91.15
2019-02-07T00:11:50.817Z,91.05
2019-02-07T00:12:51.024Z,91.62
2019-02-07T00:13:50.558Z,91.91
2019-02-07T00:14:50.534Z,91.91
2019-02-07T00:15:50.793Z,92.19
2019-02-07T00:16:50.517Z,91.43
2019-02-07T00:17:50.739Z,91.05
2019-02-07T00:18:50.478Z,90.68
2019-02-07T00:19:50.720Z,91.15
2019-02-07T00:20:50.985Z,91.43
2019-02-07T00:21:50.446Z,91.34
2019-02-07T00:22:50.430Z,91.91
2019-02-07T00:23:50.716Z,92.1
2019-02-07T00:24:50.684Z,91.05
2019-02-07T00:25:50.645Z,91.81
2019-02-07T00:26:50.629Z,91.24
2019-02-07T00:27:50.357Z,92.1
2019-02-07T00:28:50.911Z,90.96
2019-02-07T00:29:50.341Z,90.49
2019-02-07T00:30:50.571Z,90.86
2019-02-07T00:31:50.564Z,91.05
2019-02-07T00:32:50.307Z,90.58
2019-02-07T00:33:50.304Z,90.77
2019-02-07T00:34:50.615Z,91.34
2019-02-07T00:35:50.499Z,90.86
2019-02-07T00:36:50.723Z,91.05
2019-02-07T00:37:50.488Z,90.96
2019-02-07T00:38:50.457Z,90.86
2019-02-07T00:39:50.215Z,91.62
2019-02-07T00:40:50.434Z,92.29
2019-02-07T00:41:50.437Z,92.57
2019-02-07T00:42:50.175Z,92.66
2019-02-07T00:43:50.402Z,93.32
2019-02-07T00:44:55.809Z,93.13
2019-02-07T00:45:50.371Z,93.61
2019-02-07T00:46:50.355Z,93.13
2019-02-07T00:47:50.355Z,93.99
2019-02-07T00:48:50.335Z,94.27
2019-02-07T00:49:50.323Z,93.51
2019-02-07T00:50:50.321Z,93.61
2019-02-07T00:51:50.604Z,93.42
2019-02-07T00:52:50.292Z,93.13
2019-02-07T00:53:50.264Z,93.51
2019-02-07T00:54:50.025Z,93.32
2019-02-07T00:55:50.249Z,93.32
2019-02-07T00:56:50.234Z,93.61
2019-02-07T00:57:49.985Z,93.28
2019-02-07T00:58:50.258Z,93.32
2019-02-07T00:59:50.260Z,93.28
2019-02-07T01:00:49.946Z,93.66
2019-02-07T01:01:50.156Z,94.41
2019-02-07T01:02:49.911Z,94.13
2019-02-07T01:03:49.893Z,94.13
2019-02-07T01:04:50.123Z,94.41
2019-02-07T01:05:50.112Z,94.22
2019-02-07T01:06:50.095Z,94.51
2019-02-07T01:07:50.430Z,94.7
2019-02-07T01:08:50.063Z,94.51
2019-02-07T01:09:50.051Z,95.17
2019-02-07T01:10:49.786Z,94.6
2019-02-07T01:11:50.031Z,94.79
2019-02-07T01:12:49.770Z,94.7
2019-02-07T01:13:50.005Z,95.07
2019-02-07T01:14:49.736Z,94.6
2019-02-07T01:15:49.993Z,95.36
2019-02-07T01:16:49.720Z,95.83
2019-02-07T01:17:49.953Z,95.83
2019-02-07T01:18:49.928Z,94.89
2019-02-07T01:19:49.918Z,95.73
2019-02-07T01:20:49.659Z,95.64
2019-02-07T01:21:49.897Z,95.73
2019-02-07T01:22:50.120Z,96.11
2019-02-07T01:23:49.860Z,96.4
2019-02-07T01:24:49.844Z,96.21
2019-02-07T01:25:49.842Z,96.4
2019-02-07T01:26:49.832Z,97.06
2019-02-07T01:27:49.674Z,96.87
2019-02-07T01:28:49.791Z,96.78
2019-02-07T01:29:49.781Z,95.73
2019-02-07T01:30:49.922Z,94.98
2019-02-07T01:31:49.762Z,95.17
2019-02-07T01:32:49.500Z,95.07
2019-02-07T01:33:49.730Z,95.45
2019-02-07T01:34:49.706Z,94.89
2019-02-07T01:35:49.702Z,95.45
2019-02-07T01:36:49.686Z,95.07
2019-02-07T01:37:49.675Z,95.26
2019-02-07T01:38:49.663Z,96.02
2019-02-07T01:39:49.393Z,95.73
2019-02-07T01:40:49.637Z,96.49
2019-02-07T01:41:49.673Z,96.78
2019-02-07T01:42:49.354Z,96.4
2019-02-07T01:43:49.580Z,96.68
2019-02-07T01:44:49.582Z,97.44
2019-02-07T01:45:49.498Z,96.96
2019-02-07T01:46:49.557Z,97.91
2019-02-07T01:47:49.528Z,97.72
2019-02-07T01:48:49.530Z,96.87
2019-02-07T01:49:49.518Z,96.87
2019-02-07T01:50:49.503Z,97.34
2019-02-07T01:51:49.470Z,97.72
2019-02-07T01:52:49.468Z,97.91
2019-02-07T01:53:49.546Z,97.34
2019-02-07T01:54:49.436Z,97.15
2019-02-07T01:55:49.419Z,96.02
2019-02-07T01:56:49.396Z,95.73
2019-02-07T01:57:49.137Z,96.68
2019-02-07T01:58:49.378Z,96.96
2019-02-07T01:59:49.355Z,96.4
2019-02-07T02:00:49.340Z,96.78
2019-02-07T02:01:49.332Z,97.15
2019-02-07T02:02:49.334Z,98
2019-02-07T02:03:49.309Z,97.63
2019-02-07T02:04:49.286Z,97.34
2019-02-07T02:05:49.271Z,97.34
2019-02-07T02:06:49.266Z,98.38
2019-02-07T02:07:49.248Z,98.1
2019-02-07T02:08:49.372Z,98.1
2019-02-07T02:09:49.212Z,97.72
2019-02-07T02:10:49.240Z,98.1
2019-02-07T02:11:49.244Z,98.28
2019-02-07T02:12:49.166Z,98.47
2019-02-07T02:13:49.156Z,98.19
2019-02-07T02:14:48.899Z,98.66
2019-02-07T02:15:49.129Z,98.57
2019-02-07T02:16:49.369Z,98.38
2019-02-07T02:17:49.089Z,97.72
2019-02-07T02:18:48.828Z,97.72
2019-02-07T02:19:49.064Z,97.63
2019-02-07T02:20:49.050Z,97.81
2019-02-07T02:21:49.031Z,97.81
2019-02-07T02:22:49.122Z,98
2019-02-07T02:23:48.756Z,98.66
2019-02-07T02:24:49.343Z,99.04
2019-02-07T02:25:48.981Z,98.85
2019-02-07T02:26:48.717Z,99.14
2019-02-07T02:27:48.957Z,99.33
2019-02-07T02:28:48.690Z,99.52
2019-02-07T02:29:48.671Z,99.71
2019-02-07T02:30:48.900Z,99.89
2019-02-07T02:31:48.732Z,99.99
2019-02-07T02:32:48.874Z,99.89
2019-02-07T02:33:48.861Z,99.61
2019-02-07T02:34:48.841Z,99.71
2019-02-07T02:35:48.845Z,99.14
2019-02-07T02:36:48.816Z,99.04
2019-02-07T02:37:48.809Z,99.04
2019-02-07T02:38:48.554Z,99.14
2019-02-07T02:39:48.992Z,99.04
2019-02-07T02:40:48.765Z,99.23
2019-02-07T02:41:48.751Z,98.76
2019-02-07T02:42:48.747Z,98.47
2019-02-07T02:43:48.473Z,99.14
2019-02-07T02:44:48.470Z,98.66
2019-02-07T02:45:48.438Z,98.28
2019-02-07T02:46:48.443Z,97.91
2019-02-07T02:47:48.750Z,98.1
2019-02-07T02:48:48.670Z,98.47
2019-02-07T02:49:48.668Z,97.81
2019-02-07T02:50:48.625Z,98.57
2019-02-07T02:51:48.620Z,98.28
2019-02-07T02:52:48.599Z,98.47
2019-02-07T02:53:48.589Z,98.38
2019-02-07T02:54:48.567Z,98.38
2019-02-07T02:55:48.553Z,98.38
2019-02-07T02:56:48.543Z,98.47
2019-02-07T02:57:48.533Z,98.95
2019-02-07T02:58:48.511Z,99.33
2019-02-07T02:59:48.521Z,99.04
2019-02-07T03:00:48.491Z,99.71
2019-02-07T03:01:48.236Z,99.04
2019-02-07T03:02:48.480Z,99.33
2019-02-07T03:03:48.445Z,98.19
2019-02-07T03:04:48.444Z,98
2019-02-07T03:05:48.425Z,97.91
2019-02-07T03:06:48.404Z,97.81
2019-02-07T03:07:48.173Z,97.63
2019-02-07T03:08:48.142Z,98
2019-02-07T03:09:48.115Z,98.28
2019-02-07T03:10:48.666Z,97.72
2019-02-07T03:11:48.337Z,98.28
2019-02-07T03:12:48.083Z,98.38
2019-02-07T03:13:48.303Z,99.23
2019-02-07T03:14:48.292Z,99.89
2019-02-07T03:15:52.079Z,99.33
2019-02-07T03:16:48.300Z,99.23
2019-02-07T03:17:48.004Z,99.14
2019-02-07T03:18:48.331Z,98.57
2019-02-07T03:19:47.992Z,98.19
2019-02-07T03:20:48.216Z,98.1
2019-02-07T03:21:48.196Z,97.91
2019-02-07T03:22:48.185Z,98.66
2019-02-07T03:23:48.162Z,98.1
2019-02-07T03:24:48.151Z,98.28
2019-02-07T03:25:48.271Z,98.24
2019-02-07T03:26:47.872Z,98.57
2019-02-07T03:27:47.872Z,99.27
2019-02-07T03:28:48.092Z,99.08
2019-02-07T03:29:47.848Z,98.33
2019-02-07T03:30:48.130Z,98.14
2019-02-07T03:31:48.052Z,97.91
2019-02-07T03:32:48.074Z,97.77
2019-02-07T03:33:48.338Z,97.77
2019-02-07T03:34:48.013Z,97.39
2019-02-07T03:35:47.994Z,97.67
2019-02-07T03:36:48.003Z,97.96
2019-02-07T03:37:47.955Z,98.14
2019-02-07T03:38:47.695Z,98.33
2019-02-07T03:39:47.692Z,98.61
2019-02-07T03:40:47.916Z,98.14
2019-02-07T03:41:48.134Z,98.43
2019-02-07T03:42:47.641Z,98.71
2019-02-07T03:43:47.636Z,99.27
2019-02-07T03:44:47.606Z,99.99
2019-02-07T03:45:47.595Z,99.99
2019-02-07T03:46:47.584Z,99.99
2019-02-07T03:47:47.820Z,99.99
2019-02-07T03:48:47.808Z,99.84
2019-02-07T03:49:47.816Z,99.84
2019-02-07T03:50:47.527Z,99.75
2019-02-07T03:51:47.767Z,99.18
2019-02-07T03:52:47.743Z,98.33
2019-02-07T03:53:47.479Z,97.96
2019-02-07T03:54:47.714Z,97.67
2019-02-07T03:55:47.696Z,97.96
2019-02-07T03:56:47.691Z,97.96
2019-02-07T03:57:47.664Z,98.24
2019-02-07T03:58:47.660Z,98.24
2019-02-07T03:59:47.638Z,97.96
2019-02-07T04:00:47.633Z,98.33
2019-02-07T04:01:47.377Z,98.05
2019-02-07T04:02:47.601Z,98.43
2019-02-07T04:03:47.585Z,98.8
2019-02-07T04:04:47.814Z,98.99
2019-02-07T04:05:47.298Z,98.99
2019-02-07T04:06:47.538Z,98.99
2019-02-07T04:07:47.535Z,99.08
2019-02-07T04:08:47.262Z,99.08
2019-02-07T04:09:47.508Z,98.99
2019-02-07T04:10:47.225Z,98.52
2019-02-07T04:11:47.551Z,98.71
2019-02-07T04:12:47.765Z,98.61
2019-02-07T04:13:47.448Z,98.33
2019-02-07T04:14:47.174Z,98.99
2019-02-07T04:15:47.162Z,98.99
2019-02-07T04:16:47.422Z,98.99
2019-02-07T04:17:47.138Z,99.84
2019-02-07T04:18:47.376Z,98.52
2019-02-07T04:19:47.116Z,97.67
2019-02-07T04:20:47.703Z,98.24
2019-02-07T04:21:47.344Z,98.52
2019-02-07T04:22:47.311Z,99.08
2019-02-07T04:23:47.301Z,99.18
2019-02-07T04:24:47.282Z,99.04
2019-02-07T04:25:47.016Z,98.47
2019-02-07T04:26:47.263Z,98.19
2019-02-07T04:27:47.247Z,97.91
2019-02-07T04:28:47.437Z,98.57
2019-02-07T04:29:46.964Z,98
2019-02-07T04:30:47.197Z,97.15
2019-02-07T04:31:47.183Z,97.34
2019-02-07T04:32:47.179Z,97.34
2019-02-07T04:33:47.159Z,97.15
2019-02-07T04:34:47.151Z,96.4
2019-02-07T04:35:47.141Z,95.64
2019-02-07T04:36:46.893Z,95.54
2019-02-07T04:37:47.103Z,96.78
2019-02-07T04:38:47.090Z,96.68
2019-02-07T04:39:47.085Z,96.02
2019-02-07T04:40:46.825Z,95.83
2019-02-07T04:41:47.037Z,95.45
2019-02-07T04:42:47.033Z,95.07
2019-02-07T04:43:47.249Z,94.98
2019-02-07T04:44:47.014Z,95.26
2019-02-07T04:45:46.739Z,95.07
2019-02-07T04:46:46.972Z,95.07
2019-02-07T04:47:46.957Z,94.41
2019-02-07T04:48:46.706Z,94.22
2019-02-07T04:49:46.937Z,94.6
2019-02-07T04:50:46.914Z,94.98
2019-02-07T04:51:46.741Z,95.92
2019-02-07T04:52:46.888Z,94.7
2019-02-07T04:53:46.875Z,94.89
2019-02-07T04:54:46.610Z,94.6
2019-02-07T04:55:46.913Z,94.51
2019-02-07T04:56:46.578Z,93.75
2019-02-07T04:57:46.578Z,93.84
2019-02-07T04:58:46.807Z,93.94
2019-02-07T04:59:47.139Z,93.66
2019-02-07T05:00:46.770Z,94.51
2019-02-07T05:01:46.527Z,93.66
2019-02-07T05:02:46.752Z,93.66
2019-02-07T05:03:46.753Z,93.75
2019-02-07T05:04:46.718Z,94.13
2019-02-07T05:05:46.454Z,93.66
2019-02-07T05:06:46.710Z,94.32
2019-02-07T05:07:46.678Z,94.32
2019-02-07T05:08:46.669Z,93.84
2019-02-07T05:09:46.410Z,94.22
2019-02-07T05:10:46.652Z,93.66
2019-02-07T05:11:46.638Z,93.28
2019-02-07T05:12:46.616Z,93.47
2019-02-07T05:13:46.596Z,93.28
2019-02-07T05:14:46.648Z,92.8
2019-02-07T05:15:46.315Z,92.99
2019-02-07T05:16:46.586Z,92.71
2019-02-07T05:17:46.291Z,92.8
2019-02-07T05:18:46.276Z,93.56
2019-02-07T05:19:46.278Z,93.28
2019-02-07T05:20:46.250Z,92.61
2019-02-07T05:21:46.499Z,92.71
2019-02-07T05:22:46.789Z,93.66
2019-02-07T05:23:46.216Z,93.66
2019-02-07T05:24:46.452Z,92.33
2019-02-07T05:25:46.450Z,92.24
2019-02-07T05:26:46.194Z,91.96
2019-02-07T05:27:46.412Z,91.77
2019-02-07T05:28:46.399Z,92.24
2019-02-07T05:29:46.553Z,91.96
2019-02-07T05:30:46.370Z,91.39
2019-02-07T05:31:46.382Z,90.73
2019-02-07T05:32:46.347Z,92.05
2019-02-07T05:33:46.325Z,91.86
2019-02-07T05:34:46.069Z,91.77
2019-02-07T05:35:46.073Z,90.77
2019-02-07T05:36:46.299Z,91.39
2019-02-07T05:37:49.443Z,91.48
2019-02-07T05:38:46.267Z,91.77
2019-02-07T05:39:46.255Z,92.05
2019-02-07T05:40:46.242Z,90.91
2019-02-07T05:41:45.983Z,91.34
2019-02-07T05:42:45.955Z,91.29
2019-02-07T05:43:48.118Z,90.82
2019-02-07T05:44:46.202Z,90.91
2019-02-07T05:45:46.543Z,90.82
2019-02-07T05:46:53.445Z,91.2
2019-02-07T05:47:45.896Z,92.05
2019-02-07T05:48:46.133Z,90.82
2019-02-07T05:49:46.139Z,91.2
2019-02-07T05:50:45.863Z,91.86
2019-02-07T05:51:45.831Z,92.43
2019-02-07T05:52:46.077Z,92.61
2019-02-07T05:53:46.079Z,92.8
2019-02-07T05:54:46.069Z,92.52
2019-02-07T05:55:45.791Z,92.71
2019-02-07T05:56:46.015Z,92.71
2019-02-07T05:57:46.013Z,93.28
2019-02-07T05:58:45.993Z,93.28
2019-02-07T05:59:45.982Z,93.56
2019-02-07T06:00:45.938Z,92.61
2019-02-07T06:01:45.817Z,92.52
2019-02-07T06:02:45.699Z,92.9
2019-02-07T06:03:45.677Z,92.52
2019-02-07T06:04:45.916Z,92.61
2019-02-07T06:05:45.894Z,92.43
2019-02-07T06:06:45.883Z,92.43
2019-02-07T06:07:45.881Z,92.9
2019-02-07T06:08:46.241Z,92.52
2019-02-07T06:09:48.751Z,91.86
2019-02-07T06:10:45.613Z,92.61
2019-02-07T06:11:45.811Z,93.28
2019-02-07T06:12:45.570Z,93.28
2019-02-07T06:13:45.545Z,93.47
2019-02-07T06:14:45.774Z,93.18
2019-02-07T06:15:45.896Z,93.75
2019-02-07T06:16:45.746Z,93.66
2019-02-07T06:17:45.748Z,93.66
2019-02-07T06:18:45.471Z,94.13
2019-02-07T06:19:45.468Z,93.56
2019-02-07T06:20:45.695Z,93.47
2019-02-07T06:21:48.064Z,93.66
2019-02-07T06:22:45.433Z,93.66
2019-02-07T06:23:45.535Z,93.09
2019-02-07T06:24:45.656Z,92.43
2019-02-07T06:25:45.641Z,92.33
2019-02-07T06:26:45.369Z,93.28
2019-02-07T06:27:45.601Z,92.71
2019-02-07T06:28:45.589Z,92.24
2019-02-07T06:29:45.579Z,92.9
2019-02-07T06:30:45.307Z,92.52
2019-02-07T06:31:45.861Z,92.43
2019-02-07T06:32:45.290Z,92.71
2019-02-07T06:33:45.537Z,92.33
2019-02-07T06:34:45.512Z,91.86
2019-02-07T06:35:45.500Z,91.53
2019-02-07T06:36:45.492Z,91.86
2019-02-07T06:37:45.496Z,91.29
2019-02-07T06:38:45.462Z,91.81
2019-02-07T06:39:45.709Z,91.91
2019-02-07T06:40:45.459Z,91.91
2019-02-07T06:41:45.417Z,91.34
2019-02-07T06:42:45.153Z,91.34
2019-02-07T06:43:45.137Z,91.43
2019-02-07T06:44:45.405Z,91.81
2019-02-07T06:45:45.360Z,91.91
2019-02-07T06:46:45.113Z,91.43
2019-02-07T06:47:45.373Z,91.81
2019-02-07T06:48:45.084Z,91.24
2019-02-07T06:49:45.308Z,90.68
2019-02-07T06:50:45.295Z,91.15
2019-02-07T06:51:45.034Z,91.53
2019-02-07T06:52:45.304Z,92.24
2019-02-07T06:53:45.253Z,92.66
2019-02-07T06:54:45.158Z,92.66
2019-02-07T06:55:44.996Z,92.29
2019-02-07T06:56:44.963Z,91.05
2019-02-07T06:57:44.962Z,91.05
2019-02-07T06:58:45.183Z,91.43
2019-02-07T06:59:45.189Z,91.43
2019-02-07T07:00:45.173Z,90.77
2019-02-07T07:01:45.149Z,91.15
2019-02-07T07:02:45.325Z,91.53
2019-02-07T07:03:45.136Z,91.24
2019-02-07T07:04:45.171Z,91.24
2019-02-07T07:05:44.844Z,91.81
2019-02-07T07:06:45.084Z,91.91
2019-02-07T07:07:45.076Z,92.1
2019-02-07T07:08:44.817Z,91.81
2019-02-07T07:09:45.048Z,91.81
2019-02-07T07:10:45.259Z,91.91
2019-02-07T07:11:45.044Z,92.29
2019-02-07T07:12:44.775Z,92.1
2019-02-07T07:13:44.757Z,91.34
2019-02-07T07:14:44.985Z,91.24
2019-02-07T07:15:44.984Z,90.3
2019-02-07T07:16:44.717Z,90.58
2019-02-07T07:17:44.720Z,90.2
2019-02-07T07:18:45.163Z,90.01
2019-02-07T07:19:44.916Z,89.92
2019-02-07T07:20:44.907Z,90.11
2019-02-07T07:21:44.917Z,89.92
2019-02-07T07:22:44.881Z,90.11
2019-02-07T07:23:44.874Z,90.39
2019-02-07T07:24:44.846Z,90.77
2019-02-07T07:25:44.841Z,90.11
2019-02-07T07:26:45.154Z,90.11
2019-02-07T07:27:44.820Z,90.3
2019-02-07T07:28:44.820Z,90.39
2019-02-07T07:29:44.815Z,90.49
2019-02-07T07:30:44.553Z,89.92
2019-02-07T07:31:44.794Z,89.83
2019-02-07T07:32:44.782Z,90.11
2019-02-07T07:33:44.739Z,89.07
2019-02-07T07:34:45.110Z,89.64
2019-02-07T07:35:44.721Z,89.26
2019-02-07T07:36:44.714Z,89.17
2019-02-07T07:37:44.697Z,89.45
2019-02-07T07:38:44.672Z,88.41
2019-02-07T07:39:44.423Z,88.6
2019-02-07T07:40:44.654Z,87.46
2019-02-07T07:41:44.664Z,88.31
2019-02-07T07:42:44.728Z,88.22
2019-02-07T07:43:44.608Z,88.64
2019-02-07T07:44:44.639Z,87.98
2019-02-07T07:45:44.598Z,87.41
2019-02-07T07:46:44.603Z,87.88
2019-02-07T07:47:44.359Z,87.6
2019-02-07T07:48:44.327Z,87.04
2019-02-07T07:49:44.543Z,87.13
2019-02-07T07:50:44.321Z,86.94
2019-02-07T07:51:44.526Z,86.37
2019-02-07T07:52:44.515Z,86.66
2019-02-07T07:53:44.506Z,85.71
2019-02-07T07:54:44.488Z,85.71
2019-02-07T07:55:44.491Z,85.71
2019-02-07T07:56:44.239Z,85.9
2019-02-07T07:57:44.596Z,85.52
2019-02-07T07:58:44.184Z,85.52
2019-02-07T07:59:44.170Z,85.33
2019-02-07T08:00:44.162Z,85.52
2019-02-07T08:01:44.388Z,85.71
2019-02-07T08:02:44.161Z,85.52
2019-02-07T08:03:44.388Z,85.9
2019-02-07T08:04:44.369Z,85.52
2019-02-07T08:05:44.609Z,85.05
2019-02-07T08:06:44.352Z,84.58
2019-02-07T08:07:44.338Z,84.29
2019-02-07T08:08:44.066Z,84.48
2019-02-07T08:09:44.308Z,84.2
2019-02-07T08:10:44.048Z,84.39
2019-02-07T08:11:44.275Z,83.91
2019-02-07T08:12:44.257Z,83.44
2019-02-07T08:13:44.521Z,83.82
2019-02-07T08:14:44.232Z,83.34
2019-02-07T08:15:44.217Z,82.97
2019-02-07T08:16:44.207Z,83.06
2019-02-07T08:17:50.047Z,82.59
2019-02-07T08:18:44.180Z,82.59
2019-02-07T08:19:44.175Z,82.12
2019-02-07T08:20:44.161Z,82.4
2019-02-07T08:21:43.901Z,82.02
2019-02-07T08:22:44.137Z,81.93
2019-02-07T08:23:44.119Z,82.31
2019-02-07T08:24:44.105Z,81.68
2019-02-07T08:25:44.106Z,81.36
2019-02-07T08:26:43.839Z,81.83
2019-02-07T08:27:44.081Z,81.93
2019-02-07T08:28:43.975Z,81.12
2019-02-07T08:29:44.052Z,81.07
2019-02-07T08:30:44.049Z,81.21
2019-02-07T08:31:44.035Z,81.4
2019-02-07T08:32:44.018Z,81.12
2019-02-07T08:33:44.007Z,81.49
2019-02-07T08:34:43.754Z,80.74
2019-02-07T08:35:44.002Z,80.64
2019-02-07T08:36:43.837Z,80.26
2019-02-07T08:37:43.960Z,79.22
2019-02-07T08:38:43.730Z,80.45
2019-02-07T08:39:43.688Z,80.83
2019-02-07T08:40:43.939Z,80.83
2019-02-07T08:41:43.930Z,80.36
2019-02-07T08:42:43.922Z,79.98
2019-02-07T08:43:43.885Z,80.07
2019-02-07T08:44:44.214Z,80.26
2019-02-07T08:45:43.671Z,80.64
2019-02-07T08:46:43.894Z,80.55
2019-02-07T08:47:43.852Z,79.79
2019-02-07T08:48:43.593Z,79.41
2019-02-07T08:49:43.990Z,79.32
2019-02-07T08:50:43.579Z,78.94
2019-02-07T08:51:43.804Z,79.32
2019-02-07T08:52:44.105Z,79.03
2019-02-07T08:53:43.570Z,79.13
2019-02-07T08:54:43.791Z,78.75
2019-02-07T08:55:43.786Z,78.85
2019-02-07T08:56:43.751Z,78.94
2019-02-07T08:57:43.785Z,78.46
2019-02-07T08:58:43.761Z,79.13
2019-02-07T08:59:43.473Z,78.46
2019-02-07T09:00:43.742Z,78.75
2019-02-07T09:01:43.695Z,78.75
2019-02-07T09:02:53.656Z,79.32
2019-02-07T09:03:43.670Z,79.6
2019-02-07T09:04:43.654Z,79.5
2019-02-07T09:05:43.403Z,79.22
2019-02-07T09:06:43.635Z,78.94
2019-02-07T09:07:43.909Z,78.85
2019-02-07T09:08:43.624Z,78.56
2019-02-07T09:09:43.597Z,78.56
2019-02-07T09:10:43.346Z,78.85
2019-02-07T09:11:43.575Z,78.94
2019-02-07T09:12:43.560Z,78.94
2019-02-07T09:13:43.558Z,78.94
2019-02-07T09:14:43.546Z,79.41
2019-02-07T09:15:43.487Z,79.13
2019-02-07T09:16:43.522Z,79.69
2019-02-07T09:17:43.279Z,79.13
2019-02-07T09:18:43.532Z,79.32
2019-02-07T09:19:43.494Z,79.26
2019-02-07T09:20:43.249Z,79.36
2019-02-07T09:21:43.223Z,79.07
2019-02-07T09:22:43.229Z,78.98
2019-02-07T09:23:43.481Z,78.59
2019-02-07T09:24:43.448Z,78.59
2019-02-07T09:25:43.177Z,78.98
2019-02-07T09:26:43.174Z,78.79
2019-02-07T09:27:43.400Z,78.5
2019-02-07T09:28:43.418Z,78.31
2019-02-07T09:29:43.128Z,78.41
2019-02-07T09:30:43.368Z,77.84
2019-02-07T09:31:43.707Z,77.84
2019-02-07T09:32:43.463Z,78.22
2019-02-07T09:33:43.339Z,78.79
2019-02-07T09:34:43.340Z,77.84
2019-02-07T09:35:43.327Z,78.03
2019-02-07T09:36:43.314Z,77.84
2019-02-07T09:37:43.054Z,77.84
2019-02-07T09:38:43.290Z,77.94
2019-02-07T09:39:43.026Z,77.27
2019-02-07T09:40:43.029Z,78.13
2019-02-07T09:41:43.027Z,77.94
2019-02-07T09:42:43.250Z,77.94
2019-02-07T09:43:42.990Z,78.03
2019-02-07T09:44:43.242Z,77.65
2019-02-07T09:45:43.234Z,77.56
2019-02-07T09:46:43.530Z,78.5
2019-02-07T09:47:42.960Z,78.31
2019-02-07T09:48:43.220Z,77.37
2019-02-07T09:49:42.923Z,77.37
2019-02-07T09:50:43.164Z,77.27
2019-02-07T09:51:43.167Z,77.27
2019-02-07T09:52:43.145Z,77.31
2019-02-07T09:53:42.903Z,77.4
2019-02-07T09:54:43.531Z,76.93
2019-02-07T09:55:43.116Z,76.23
2019-02-07T09:56:42.851Z,76.27
2019-02-07T09:57:42.829Z,76.65
2019-02-07T09:58:43.097Z,76.36
2019-02-07T09:59:43.066Z,76.36
2019-02-07T10:00:42.806Z,76.46
2019-02-07T10:01:42.791Z,76.36
2019-02-07T10:02:43.552Z,76.46
2019-02-07T10:03:43.021Z,76.74
2019-02-07T10:04:42.755Z,76.46
2019-02-07T10:05:42.744Z,76.46
2019-02-07T10:06:42.742Z,76.65
2019-02-07T10:07:42.720Z,76.65
2019-02-07T10:08:42.964Z,75.51
2019-02-07T10:09:42.836Z,75.23
2019-02-07T10:10:42.718Z,75.89
2019-02-07T10:11:42.686Z,76.55
2019-02-07T10:12:43.483Z,76.17
2019-02-07T10:13:42.914Z,75.98
2019-02-07T10:14:42.904Z,75.89
2019-02-07T10:15:42.906Z,75.7
2019-02-07T10:16:42.644Z,76.27
2019-02-07T10:17:42.877Z,76.93
2019-02-07T10:18:42.644Z,76.93
2019-02-07T10:19:42.858Z,77.22
2019-02-07T10:20:42.603Z,77.69
2019-02-07T10:21:42.824Z,77.5
2019-02-07T10:22:42.825Z,78.16
2019-02-07T10:23:42.859Z,77.88
2019-02-07T10:24:42.553Z,78.45
2019-02-07T10:25:43.022Z,79.21
2019-02-07T10:26:42.538Z,79.3
2019-02-07T10:27:42.526Z,80.06
2019-02-07T10:28:42.753Z,80.15
2019-02-07T10:29:42.743Z,80.44
2019-02-07T10:30:42.741Z,80.82
2019-02-07T10:31:42.761Z,82.05
2019-02-07T10:32:42.481Z,82.71
2019-02-07T10:33:42.472Z,82.43
2019-02-07T10:34:42.704Z,82.62
2019-02-07T10:35:42.707Z,82.52
2019-02-07T10:36:42.434Z,83.75
2019-02-07T10:37:42.421Z,83.43
2019-02-07T10:38:42.648Z,83.62
2019-02-07T10:39:42.649Z,85.08
2019-02-07T10:40:42.618Z,84.42
2019-02-07T10:41:42.396Z,85.13
2019-02-07T10:42:42.360Z,85.84
2019-02-07T10:43:42.612Z,84.75
2019-02-07T10:44:42.591Z,84.94
2019-02-07T10:45:42.602Z,84.66
2019-02-07T10:46:42.558Z,85.42
2019-02-07T10:47:42.557Z,84.94
2019-02-07T10:48:47.109Z,85.89
2019-02-07T10:49:42.543Z,86.36
2019-02-07T10:50:42.544Z,87.02
2019-02-07T10:51:42.525Z,86.74
2019-02-07T10:52:42.476Z,87.78
2019-02-07T10:53:42.485Z,88.54
2019-02-07T10:54:42.238Z,88.92
2019-02-07T10:55:42.219Z,89.68
2019-02-07T10:56:42.845Z,90.06
2019-02-07T10:57:42.228Z,89.11
2019-02-07T10:58:42.192Z,89.58
2019-02-07T10:59:42.417Z,89.77
2019-02-07T11:00:42.436Z,90.25
2019-02-07T11:01:42.397Z,91
2019-02-07T11:02:42.398Z,91.19
2019-02-07T11:03:42.374Z,91.38
2019-02-07T11:04:42.141Z,91.1
2019-02-07T11:05:42.366Z,92.05
2019-02-07T11:06:42.398Z,92.61
2019-02-07T11:07:42.114Z,92.99
2019-02-07T11:08:42.104Z,92.61
2019-02-07T11:09:42.075Z,92.9
2019-02-07T11:10:42.302Z,92.85
2019-02-07T11:11:42.332Z,93.04
2019-02-07T11:12:42.285Z,93.13
2019-02-07T11:13:42.296Z,92.57
2019-02-07T11:14:42.004Z,92.85
2019-02-07T11:15:42.253Z,93.13
2019-02-07T11:16:42.234Z,93.32
2019-02-07T11:17:42.247Z,92.66
2019-02-07T11:18:42.220Z,93.13
2019-02-07T11:19:42.226Z,93.13
2019-02-07T11:20:42.230Z,93.04
2019-02-07T11:21:41.931Z,93.61
2019-02-07T11:22:42.191Z,93.51
2019-02-07T11:23:42.162Z,94.08
2019-02-07T11:24:42.155Z,94.46
2019-02-07T11:25:41.953Z,94.37
2019-02-07T11:26:41.897Z,94.46
2019-02-07T11:27:44.853Z,94.18
2019-02-07T11:28:42.108Z,94.65
2019-02-07T11:29:41.835Z,94.18
2019-02-07T11:30:41.828Z,94.56
2019-02-07T11:31:42.123Z,94.46
2019-02-07T11:32:42.064Z,95.03
2019-02-07T11:33:42.080Z,94.18
2019-02-07T11:34:41.835Z,94.08
2019-02-07T11:35:42.046Z,94.08
2019-02-07T11:36:42.018Z,94.37
2019-02-07T11:37:42.022Z,94.74
2019-02-07T11:38:41.752Z,94.74
2019-02-07T11:39:42.006Z,94.74
2019-02-07T11:40:43.764Z,94.56
2019-02-07T11:41:41.972Z,94.56
2019-02-07T11:42:41.974Z,94.37
2019-02-07T11:43:42.157Z,94.37
2019-02-07T11:44:41.942Z,94.56
2019-02-07T11:45:41.956Z,94.74
2019-02-07T11:46:41.680Z,95.5
2019-02-07T11:47:41.909Z,95.31
2019-02-07T11:48:41.902Z,95.6
2019-02-07T11:49:41.899Z,95.5
2019-02-07T11:50:41.623Z,95.5
2019-02-07T11:51:41.707Z,96.45
2019-02-07T11:52:41.864Z,96.17
2019-02-07T11:53:41.840Z,96.36
2019-02-07T11:54:41.832Z,96.17
2019-02-07T11:55:41.823Z,96.92
2019-02-07T11:56:41.814Z,97.3
2019-02-07T11:57:41.563Z,97.49
2019-02-07T11:58:41.790Z,97.87
2019-02-07T11:59:41.804Z,98.16
2019-02-07T12:00:41.841Z,97.78
2019-02-07T12:01:41.519Z,98.35
2019-02-07T12:02:41.608Z,98.44
2019-02-07T12:03:41.738Z,98.54
2019-02-07T12:04:41.491Z,98.44
2019-02-07T12:05:41.506Z,99.1
2019-02-07T12:06:41.604Z,99.01
2019-02-07T12:07:41.454Z,98.91
2019-02-07T12:08:41.439Z,98.54
2019-02-07T12:09:41.671Z,98.72
2019-02-07T12:10:41.412Z,99.1
2019-02-07T12:11:41.650Z,98.54
2019-02-07T12:12:41.637Z,98.72
2019-02-07T12:13:41.397Z,98.35
2019-02-07T12:14:41.858Z,99.2
2019-02-07T12:15:41.481Z,99.1
2019-02-07T12:16:41.597Z,99.58
2019-02-07T12:17:41.340Z,99.77
2019-02-07T12:18:41.326Z,98.72
2019-02-07T12:19:41.352Z,99.29
2019-02-07T12:20:41.305Z,99.58
2019-02-07T12:21:41.300Z,99.86
2019-02-07T12:22:41.825Z,99.99
2019-02-07T12:23:41.271Z,99.99
2019-02-07T12:24:41.508Z,99.99
2019-02-07T12:25:41.499Z,99.99
2019-02-07T12:26:41.488Z,99.99
2019-02-07T12:27:41.475Z,99.99
2019-02-07T12:28:41.227Z,99.99
2019-02-07T12:29:41.214Z,99.99
2019-02-07T12:30:41.447Z,99.99
2019-02-07T12:31:41.196Z,99.99
2019-02-07T12:32:41.459Z,99.99
2019-02-07T12:33:41.420Z,99.72
2019-02-07T12:34:41.411Z,99.72
2019-02-07T12:35:41.393Z,99.99
2019-02-07T12:36:41.148Z,99.99
2019-02-07T12:37:41.553Z,99.91
2019-02-07T12:38:41.111Z,99.72
2019-02-07T12:39:41.421Z,99.44
2019-02-07T12:40:41.343Z,99.63
2019-02-07T12:41:41.335Z,99.91
2019-02-07T12:42:41.358Z,99.44
2019-02-07T12:43:41.067Z,99.91
2019-02-07T12:44:42.108Z,99.91
2019-02-07T12:45:41.486Z,99.99
2019-02-07T12:46:41.284Z,99.91
2019-02-07T12:47:41.290Z,99.82
2019-02-07T12:48:41.271Z,99.99
2019-02-07T12:49:41.291Z,99.91
2019-02-07T12:50:41.251Z,99.53
2019-02-07T12:51:41.290Z,99.99
2019-02-07T12:52:40.990Z,99.72
2019-02-07T12:53:41.265Z,99.49
2019-02-07T12:54:41.274Z,99.91
2019-02-07T12:55:51.540Z,99.99